Time;durP1;ratioP1;P1;durP2;ratioP2;P2;SDS_P1;SDS_P2;PMS_P1;PMS_P2;Temp;Humidity;BMP_temperature;BMP_pressure;BME280_temperature;BME280_humidity;BME280_pressure;Samples;Min_cycle;Max_cycle;Signal;HPM_P1;HPM_P2
2023/05/09 00:00:37;;;;;;;13.50;6.17;;;12.30;99.90;;;;;;4988282;28;20261;-65
2023/05/09 00:03:04;;;;;;;13.83;8.40;;;12.20;99.90;;;;;;4986186;28;20188;-65
2023/05/09 00:05:30;;;;;;;20.03;9.17;;;12.20;99.90;;;;;;4981881;28;20454;-65
2023/05/09 00:07:56;;;;;;;16.20;9.50;;;12.20;99.90;;;;;;4971975;28;20526;-65
2023/05/09 00:10:22;;;;;;;18.93;9.00;;;12.20;99.90;;;;;;4971058;28;20208;-65
2023/05/09 00:12:48;;;;;;;12.97;7.87;;;12.20;99.90;;;;;;4970118;28;20762;-65
2023/05/09 00:15:14;;;;;;;16.77;8.37;;;12.30;99.90;;;;;;4971526;28;20271;-65
2023/05/09 00:17:40;;;;;;;17.87;9.00;;;12.20;99.90;;;;;;4974084;28;20519;-65
2023/05/09 00:20:11;;;;;;;16.07;9.90;;;12.20;99.90;;;;;;4971589;28;20507;-65
2023/05/09 00:22:38;;;;;;;13.80;7.73;;;12.30;99.90;;;;;;4976649;28;20184;-65
2023/05/09 00:25:05;;;;;;;18.03;8.07;;;12.30;99.90;;;;;;4981525;28;20912;-65
2023/05/09 00:27:31;;;;;;;19.27;9.30;;;12.30;99.90;;;;;;4984450;28;20764;-65
2023/05/09 00:29:56;;;;;;;17.67;7.97;;;12.40;99.90;;;;;;4971050;28;20558;-65
2023/05/09 00:32:23;;;;;;;11.17;7.07;;;12.30;99.90;;;;;;4984631;28;20291;-65
2023/05/09 00:34:49;;;;;;;15.17;7.10;;;12.30;99.90;;;;;;4971501;28;20185;-65
2023/05/09 00:37:17;;;;;;;12.17;6.67;;;12.30;99.90;;;;;;4970979;28;20524;-65
2023/05/09 00:39:44;;;;;;;16.53;8.17;;;12.40;99.90;;;;;;4981656;28;20457;-65
2023/05/09 00:42:09;;;;;;;13.97;9.40;;;12.30;99.90;;;;;;4982517;28;20793;-65
2023/05/09 00:44:35;;;;;;;17.60;8.07;;;12.40;99.90;;;;;;4981345;28;20514;-65
2023/05/09 00:47:00;;;;;;;13.73;7.93;;;12.40;99.90;;;;;;4988126;28;20199;-65
2023/05/09 00:49:26;;;;;;;11.00;6.10;;;12.40;99.90;;;;;;4976436;28;20579;-65
2023/05/09 00:51:53;;;;;;;12.97;6.57;;;12.40;99.90;;;;;;4971109;28;20207;-65
2023/05/09 00:54:19;;;;;;;19.10;7.37;;;12.40;99.90;;;;;;4971244;28;20201;-65
2023/05/09 00:56:45;;;;;;;10.10;5.67;;;12.40;99.90;;;;;;4986916;28;20431;-65
2023/05/09 00:59:10;;;;;;;9.00;6.43;;;12.40;99.90;;;;;;4978818;28;20574;-65
2023/05/09 01:01:36;;;;;;;12.70;6.17;;;12.40;99.90;;;;;;4970337;28;20629;-65
2023/05/09 01:04:02;;;;;;;11.00;5.27;;;12.30;99.90;;;;;;4970987;28;20227;-65
2023/05/09 01:06:38;;;;;;;10.87;5.23;;;12.30;99.90;;;;;;4984343;28;20208;-65
2023/05/09 01:09:31;;;;;;;11.90;6.00;;;12.30;99.90;;;;;;4971378;28;20187;-65
2023/05/09 01:12:08;;;;;;;9.37;5.40;;;12.30;99.90;;;;;;4959481;28;20455;-65
2023/05/09 01:15:01;;;;;;;11.30;6.50;;;12.30;99.90;;;;;;4983323;28;21080;-65
2023/05/09 01:17:32;;;;;;;11.27;6.03;;;12.30;99.90;;;;;;4973153;28;20478;-65
2023/05/09 01:20:04;;;;;;;17.17;6.47;;;12.30;99.90;;;;;;4978934;28;20427;-65
2023/05/09 01:22:35;;;;;;;11.20;5.33;;;12.30;99.90;;;;;;4977558;28;20428;-65
2023/05/09 01:25:19;;;;;;;11.40;6.80;;;12.30;99.90;;;;;;4982913;28;20503;-65
2023/05/09 01:28:23;;;;;;;11.77;5.80;;;12.30;99.90;;;;;;4988049;28;20415;-65
2023/05/09 01:30:52;;;;;;;13.33;6.10;;;12.20;99.90;;;;;;4949379;28;20822;-65
2023/05/09 01:33:20;;;;;;;14.60;5.73;;;12.20;99.90;;;;;;4991448;28;20434;-65
2023/05/09 01:35:50;;;;;;;9.23;5.17;;;12.20;99.90;;;;;;4989151;28;20427;-65
2023/05/09 01:38:20;;;;;;;12.77;5.80;;;12.20;99.90;;;;;;4974791;28;20459;-65
2023/05/09 01:40:50;;;;;;;10.87;6.80;;;12.10;99.90;;;;;;4985701;28;20428;-65
2023/05/09 01:43:18;;;;;;;17.90;5.20;;;12.10;99.90;;;;;;4974266;28;20452;-65
2023/05/09 01:45:44;;;;;;;10.33;5.27;;;12.00;99.90;;;;;;4980065;28;20419;-65
2023/05/09 01:48:12;;;;;;;10.43;4.53;;;12.00;99.90;;;;;;4980506;28;21028;-65
2023/05/09 01:50:39;;;;;;;8.27;5.37;;;12.10;99.90;;;;;;4973682;28;20471;-65
2023/05/09 01:53:06;;;;;;;8.67;4.77;;;11.90;99.90;;;;;;4974143;28;20470;-65
2023/05/09 01:55:35;;;;;;;12.20;6.20;;;11.90;99.90;;;;;;4971631;28;20424;-64
2023/05/09 01:58:04;;;;;;;8.57;5.73;;;11.80;99.90;;;;;;4974335;28;20941;-65
2023/05/09 02:00:32;;;;;;;10.07;5.47;;;11.80;99.90;;;;;;4961433;28;20475;-65
2023/05/09 02:02:58;;;;;;;12.10;5.80;;;11.80;99.90;;;;;;4987468;28;20431;-65
2023/05/09 02:05:29;;;;;;;10.33;6.57;;;11.80;99.90;;;;;;4991473;28;20489;-65
2023/05/09 02:07:58;;;;;;;14.83;6.97;;;11.80;99.90;;;;;;4977993;28;20432;-65
2023/05/09 02:10:26;;;;;;;10.90;5.83;;;11.80;99.90;;;;;;4973085;28;20463;-65
2023/05/09 02:12:53;;;;;;;15.97;7.03;;;11.90;99.90;;;;;;4973617;28;20452;-65
2023/05/09 02:15:19;;;;;;;12.70;6.33;;;11.90;99.90;;;;;;4973752;28;21304;-65
2023/05/09 02:17:45;;;;;;;13.40;7.63;;;11.90;99.90;;;;;;4974997;28;20901;-65
2023/05/09 02:20:12;;;;;;;10.10;6.60;;;11.90;99.90;;;;;;4981588;28;20485;-65
2023/05/09 02:22:40;;;;;;;9.60;6.37;;;12.00;99.90;;;;;;4977525;28;20636;-65
2023/05/09 02:25:07;;;;;;;11.80;6.77;;;12.00;99.90;;;;;;4983338;28;20471;-65
2023/05/09 02:27:34;;;;;;;13.83;6.90;;;12.00;99.90;;;;;;4976858;28;20522;-65
2023/05/09 02:30:03;;;;;;;13.60;7.60;;;12.00;99.90;;;;;;4991679;28;20557;-65
2023/05/09 02:32:31;;;;;;;13.57;7.40;;;12.00;99.90;;;;;;4979385;28;20423;-66
2023/05/09 02:34:59;;;;;;;12.83;6.60;;;12.00;99.90;;;;;;4981024;28;20438;-65
2023/05/09 02:37:26;;;;;;;15.10;7.50;;;12.00;99.90;;;;;;4987417;28;20446;-65
2023/05/09 02:39:52;;;;;;;10.00;6.17;;;12.00;99.90;;;;;;4973409;28;20499;-65
2023/05/09 02:42:23;;;;;;;12.97;7.40;;;12.10;99.90;;;;;;4985916;28;20486;-65
2023/05/09 02:44:52;;;;;;;14.70;7.80;;;12.00;99.90;;;;;;4978672;28;20503;-65
2023/05/09 02:47:18;;;;;;;12.23;6.77;;;12.00;99.90;;;;;;4991666;28;20427;-65
2023/05/09 02:49:44;;;;;;;13.13;7.40;;;12.10;99.90;;;;;;4978546;28;20971;-65
2023/05/09 02:52:10;;;;;;;12.70;6.97;;;12.00;99.90;;;;;;4976964;28;20192;-65
2023/05/09 02:54:36;;;;;;;13.13;7.47;;;12.00;99.90;;;;;;4978735;28;20874;-65
2023/05/09 02:57:02;;;;;;;23.13;6.73;;;12.00;99.90;;;;;;4981507;28;20423;-65
2023/05/09 02:59:28;;;;;;;12.37;6.97;;;12.00;99.90;;;;;;4978445;28;20424;-65
2023/05/09 03:01:54;;;;;;;12.73;6.97;;;12.00;99.90;;;;;;4984137;28;20557;-65
2023/05/09 03:04:19;;;;;;;13.17;6.57;;;11.90;99.90;;;;;;4974664;28;20188;-65
2023/05/09 03:06:45;;;;;;;14.13;6.30;;;11.90;99.90;;;;;;4985866;28;20210;-65
2023/05/09 03:09:11;;;;;;;8.53;5.17;;;11.90;99.90;;;;;;4971651;28;20189;-65
2023/05/09 03:11:36;;;;;;;11.80;5.97;;;11.90;99.90;;;;;;4972003;28;20239;-65
2023/05/09 03:14:03;;;;;;;15.73;6.70;;;11.80;99.90;;;;;;4970696;28;20212;-65
2023/05/09 03:16:29;;;;;;;9.53;6.00;;;11.80;99.90;;;;;;4974972;28;20629;-65
2023/05/09 03:18:54;;;;;;;12.17;5.77;;;11.70;99.90;;;;;;4970175;28;20442;-65
2023/05/09 03:21:20;;;;;;;10.37;6.47;;;11.80;99.90;;;;;;4985592;28;20192;-65
2023/05/09 03:23:45;;;;;;;13.07;6.73;;;11.80;99.90;;;;;;4971276;28;20284;-65
2023/05/09 03:26:11;;;;;;;11.20;7.57;;;11.80;99.90;;;;;;4972482;28;20684;-65
2023/05/09 03:28:37;;;;;;;11.80;7.20;;;11.80;99.90;;;;;;4972752;28;20608;-65
2023/05/09 03:31:03;;;;;;;17.83;7.90;;;11.80;99.90;;;;;;4978024;28;20294;-65
2023/05/09 03:33:29;;;;;;;14.63;6.37;;;11.90;99.90;;;;;;4991921;28;20872;-65
2023/05/09 03:35:55;;;;;;;14.60;7.70;;;11.90;99.90;;;;;;4973104;28;20562;-65
2023/05/09 03:38:23;;;;;;;14.20;7.43;;;11.90;99.90;;;;;;4977495;28;20239;-65
2023/05/09 03:40:49;;;;;;;11.87;7.40;;;12.00;99.90;;;;;;4985372;28;20201;-65
2023/05/09 03:43:15;;;;;;;13.17;7.10;;;12.00;99.90;;;;;;4972526;28;20773;-65
2023/05/09 03:45:41;;;;;;;11.70;7.20;;;12.00;99.90;;;;;;4970474;28;20916;-65
2023/05/09 03:48:08;;;;;;;9.80;5.07;;;11.90;99.90;;;;;;4983574;28;20188;-66
2023/05/09 03:50:34;;;;;;;15.13;7.27;;;11.90;99.90;;;;;;4978497;28;20203;-66
2023/05/09 03:53:00;;;;;;;8.70;5.60;;;11.90;99.90;;;;;;4991285;28;20454;-66
2023/05/09 03:55:26;;;;;;;16.03;5.97;;;11.90;99.90;;;;;;4972795;28;20455;-66
2023/05/09 03:57:53;;;;;;;12.67;7.03;;;11.90;99.90;;;;;;4972255;28;20434;-66
2023/05/09 04:00:20;;;;;;;13.30;6.20;;;11.90;99.90;;;;;;4972077;28;21016;-66
2023/05/09 04:02:46;;;;;;;12.30;6.30;;;12.00;99.90;;;;;;4971879;28;20435;-66
2023/05/09 04:05:12;;;;;;;12.00;6.17;;;11.90;99.90;;;;;;4971504;28;20530;-66
2023/05/09 04:07:38;;;;;;;10.20;5.83;;;12.00;99.90;;;;;;4972302;28;20507;-66
2023/05/09 04:10:05;;;;;;;9.73;6.03;;;12.00;99.90;;;;;;4971055;28;20295;-66
2023/05/09 04:12:30;;;;;;;8.67;6.37;;;12.00;99.90;;;;;;4971527;28;20280;-66
2023/05/09 04:14:56;;;;;;;15.03;6.27;;;12.00;99.90;;;;;;4984250;28;20470;-66
2023/05/09 04:17:21;;;;;;;12.90;6.40;;;12.00;99.90;;;;;;4978891;28;20180;-66
2023/05/09 04:19:47;;;;;;;14.53;6.70;;;12.00;99.90;;;;;;4971714;28;20192;-66
2023/05/09 04:22:13;;;;;;;6.43;3.70;;;12.10;99.90;;;;;;4984567;28;20268;-66
2023/05/09 04:24:38;;;;;;;7.77;5.13;;;12.10;99.90;;;;;;4972038;28;20659;-66
2023/05/09 04:27:04;;;;;;;11.67;6.00;;;12.20;99.90;;;;;;4984027;28;20628;-66
2023/05/09 04:29:30;;;;;;;9.97;5.00;;;12.20;99.90;;;;;;4978460;28;20192;-66
2023/05/09 04:31:56;;;;;;;14.23;5.43;;;12.20;99.90;;;;;;4991063;28;20180;-66
2023/05/09 04:34:22;;;;;;;9.53;5.60;;;12.20;99.90;;;;;;4984804;28;20617;-66
2023/05/09 04:36:48;;;;;;;18.17;5.90;;;12.20;99.90;;;;;;4972215;28;20448;-66
2023/05/09 04:39:13;;;;;;;9.17;4.83;;;12.20;99.90;;;;;;4971405;28;20196;-66
2023/05/09 04:41:39;;;;;;;10.80;5.93;;;12.30;99.90;;;;;;4970709;28;20199;-66
2023/05/09 04:44:05;;;;;;;6.93;4.20;;;12.30;99.90;;;;;;4971244;28;20185;-66
2023/05/09 04:46:30;;;;;;;8.43;5.83;;;12.30;99.90;;;;;;4971755;28;20262;-66
2023/05/09 04:48:56;;;;;;;9.10;4.90;;;12.30;99.90;;;;;;4981304;28;20283;-66
2023/05/09 04:51:22;;;;;;;9.63;4.83;;;12.50;99.90;;;;;;4971694;28;20200;-66
2023/05/09 04:53:47;;;;;;;10.00;5.13;;;12.40;99.90;;;;;;4984118;28;20188;-66
2023/05/09 04:56:13;;;;;;;8.47;4.90;;;12.40;99.90;;;;;;4971096;28;20191;-66
2023/05/09 04:58:39;;;;;;;14.67;6.30;;;12.50;99.90;;;;;;4977162;28;20184;-66
2023/05/09 05:01:05;;;;;;;11.27;5.27;;;12.50;99.90;;;;;;4987901;28;20185;-66
2023/05/09 05:03:31;;;;;;;10.53;5.60;;;12.60;99.90;;;;;;4975533;28;20176;-66
2023/05/09 05:05:57;;;;;;;10.37;5.40;;;12.60;99.90;;;;;;4986613;28;20676;-66
2023/05/09 05:08:23;;;;;;;5.67;3.50;;;12.60;99.90;;;;;;4976394;28;20434;-66
2023/05/09 05:10:48;;;;;;;10.67;5.13;;;12.50;99.90;;;;;;4974938;28;20212;-66
2023/05/09 05:13:15;;;;;;;7.10;4.67;;;12.60;99.90;;;;;;4974362;28;20217;-66
2023/05/09 05:15:41;;;;;;;12.23;6.30;;;12.60;99.90;;;;;;4974921;28;20181;-67
2023/05/09 05:18:06;;;;;;;8.90;5.27;;;12.70;99.90;;;;;;4982225;28;20427;-67
2023/05/09 05:20:32;;;;;;;11.90;5.90;;;12.80;99.90;;;;;;4974247;28;20495;-66
2023/05/09 05:22:58;;;;;;;9.63;5.97;;;12.80;99.90;;;;;;4987763;28;20232;-66
2023/05/09 05:25:24;;;;;;;9.53;5.50;;;12.80;99.90;;;;;;4974641;28;20670;-67
2023/05/09 05:27:50;;;;;;;9.93;5.87;;;12.90;99.90;;;;;;4988136;28;20181;-66
2023/05/09 05:30:15;;;;;;;14.90;5.73;;;12.90;99.90;;;;;;4974170;28;20471;-66
2023/05/09 05:32:42;;;;;;;11.27;5.87;;;13.00;99.90;;;;;;4975279;28;20188;-66
2023/05/09 05:35:10;;;;;;;10.77;5.10;;;13.10;99.90;;;;;;4985276;28;20176;-67
2023/05/09 05:37:37;;;;;;;10.10;4.67;;;13.10;99.90;;;;;;4972356;28;20531;-66
2023/05/09 05:40:04;;;;;;;8.90;4.53;;;13.20;99.90;;;;;;4973331;28;20902;-66
2023/05/09 05:42:30;;;;;;;10.70;5.43;;;13.20;99.90;;;;;;4972790;28;20428;-64
2023/05/09 05:44:55;;;;;;;10.30;5.00;;;13.30;99.90;;;;;;4986417;28;20419;-64
2023/05/09 05:47:21;;;;;;;9.70;5.80;;;13.40;99.90;;;;;;4980028;28;20539;-64
2023/05/09 05:49:46;;;;;;;8.90;4.40;;;13.40;99.90;;;;;;4978472;28;20208;-64
2023/05/09 05:52:12;;;;;;;10.30;5.10;;;13.40;99.90;;;;;;4972793;28;20813;-64
2023/05/09 05:54:37;;;;;;;11.53;5.23;;;13.50;99.90;;;;;;4972221;28;20184;-64
2023/05/09 05:57:03;;;;;;;10.63;4.77;;;13.70;99.90;;;;;;4973103;28;20191;-64
2023/05/09 05:59:29;;;;;;;6.20;4.53;;;13.60;99.90;;;;;;4971800;28;20187;-65
2023/05/09 06:01:54;;;;;;;8.93;4.00;;;13.70;99.90;;;;;;4974878;28;20180;-64
2023/05/09 06:04:20;;;;;;;6.37;3.57;;;13.70;99.90;;;;;;4978044;28;20649;-64
2023/05/09 06:06:45;;;;;;;15.30;4.80;;;13.80;99.90;;;;;;4979068;28;20201;-68
2023/05/09 06:09:11;;;;;;;7.53;4.27;;;13.90;99.90;;;;;;4972487;28;20187;-67
2023/05/09 06:11:38;;;;;;;10.40;4.20;;;13.90;99.90;;;;;;4969465;28;20227;-67
2023/05/09 06:14:03;;;;;;;8.00;4.53;;;13.80;99.90;;;;;;4970959;28;20286;-67
2023/05/09 06:16:29;;;;;;;9.37;4.10;;;13.90;99.90;;;;;;4973602;28;20927;-65
2023/05/09 06:18:55;;;;;;;9.03;4.40;;;13.80;99.90;;;;;;4971579;28;20275;-65
2023/05/09 06:21:20;;;;;;;9.87;4.47;;;13.90;99.90;;;;;;4976827;28;20265;-65
2023/05/09 06:23:46;;;;;;;5.87;3.60;;;14.00;99.90;;;;;;4991753;28;20187;-65
2023/05/09 06:26:13;;;;;;;10.30;4.30;;;14.10;99.90;;;;;;4979044;28;20188;-65
2023/05/09 06:28:39;;;;;;;4.80;3.63;;;14.30;99.90;;;;;;4973708;28;20208;-65
2023/05/09 06:31:04;;;;;;;9.50;4.70;;;14.30;99.90;;;;;;4990341;28;20537;-65
2023/05/09 06:33:30;;;;;;;6.57;3.70;;;14.50;99.90;;;;;;4978015;28;20193;-65
2023/05/09 06:35:57;;;;;;;6.53;3.07;;;14.50;99.90;;;;;;4976337;28;20234;-65
2023/05/09 06:38:23;;;;;;;7.83;4.20;;;14.60;99.90;;;;;;4980395;28;20542;-65
2023/05/09 06:40:48;;;;;;;6.60;3.47;;;14.70;99.90;;;;;;4976517;28;20431;-65
2023/05/09 06:43:14;;;;;;;7.10;4.10;;;14.80;99.90;;;;;;4991706;28;20275;-65
2023/05/09 06:45:40;;;;;;;7.00;4.40;;;14.80;99.90;;;;;;4985977;28;20275;-65
2023/05/09 06:48:05;;;;;;;7.07;4.13;;;14.90;99.90;;;;;;4982678;28;20198;-65
2023/05/09 06:50:31;;;;;;;4.97;3.17;;;14.90;99.90;;;;;;4973422;28;20677;-65
2023/05/09 06:52:57;;;;;;;6.87;3.90;;;14.90;99.90;;;;;;4982538;28;20179;-65
2023/05/09 06:55:22;;;;;;;8.03;4.63;;;15.00;99.90;;;;;;4991397;28;20186;-65
2023/05/09 06:57:48;;;;;;;6.40;3.80;;;15.10;99.90;;;;;;4980320;28;20751;-65
2023/05/09 07:00:14;;;;;;;6.90;3.70;;;15.00;99.90;;;;;;4969428;28;20239;-65
2023/05/09 07:02:40;;;;;;;6.63;3.77;;;15.00;99.90;;;;;;4981944;28;20540;-65
2023/05/09 07:05:08;;;;;;;5.73;3.03;;;14.90;99.90;;;;;;4987968;28;20498;-65
2023/05/09 07:07:34;;;;;;;6.53;3.30;;;14.90;99.90;;;;;;4973141;28;20679;-65
2023/05/09 07:10:02;;;;;;;7.37;3.83;;;15.00;99.90;;;;;;4985899;28;20994;-65
2023/05/09 07:12:30;;;;;;;7.50;3.83;;;15.00;99.90;;;;;;4972435;28;20204;-65
2023/05/09 07:14:55;;;;;;;5.17;3.63;;;15.10;99.90;;;;;;4972803;28;20442;-65
2023/05/09 07:17:21;;;;;;;5.87;3.30;;;15.20;99.90;;;;;;4974760;28;20507;-65
2023/05/09 07:19:47;;;;;;;7.87;3.80;;;15.20;99.90;;;;;;4971889;28;20199;-65
2023/05/09 07:22:13;;;;;;;6.73;3.47;;;15.20;99.90;;;;;;4972018;28;20246;-65
2023/05/09 07:24:38;;;;;;;5.60;3.83;;;15.20;99.90;;;;;;4972712;28;20192;-65
2023/05/09 07:27:04;;;;;;;5.47;3.63;;;15.10;99.90;;;;;;4980938;28;20177;-66
2023/05/09 07:29:30;;;;;;;14.50;5.87;;;15.00;99.90;;;;;;4985638;28;20254;-66
2023/05/09 07:31:56;;;;;;;7.37;3.87;;;14.90;99.90;;;;;;4984538;28;21145;-66
2023/05/09 07:34:22;;;;;;;8.63;4.70;;;14.90;99.90;;;;;;4971626;28;20183;-67
2023/05/09 07:36:48;;;;;;;6.20;4.50;;;14.80;99.90;;;;;;4973016;28;20176;-66
2023/05/09 07:39:14;;;;;;;12.80;5.33;;;14.70;99.90;;;;;;4972407;28;20422;-66
2023/05/09 07:41:39;;;;;;;6.60;4.13;;;14.70;99.90;;;;;;4984499;28;20279;-67
2023/05/09 07:44:05;;;;;;;9.60;4.57;;;14.70;99.90;;;;;;4985829;28;20193;-67
2023/05/09 07:46:30;;;;;;;14.23;4.87;;;14.80;99.90;;;;;;4972640;28;20180;-67
2023/05/09 07:48:56;;;;;;;8.43;4.93;;;14.80;99.90;;;;;;4970576;28;20200;-67
2023/05/09 07:51:22;;;;;;;14.40;5.43;;;14.90;99.90;;;;;;4984212;28;20204;-66
2023/05/09 07:53:47;;;;;;;8.03;4.03;;;14.90;99.90;;;;;;4972729;28;20199;-67
2023/05/09 07:56:13;;;;;;;9.60;4.90;;;14.90;99.90;;;;;;4972038;28;20251;-67
2023/05/09 07:58:38;;;;;;;8.70;3.90;;;15.10;99.90;;;;;;4988719;28;20191;-67
2023/05/09 08:01:04;;;;;;;10.33;4.20;;;15.40;99.90;;;;;;4976643;28;20191;-67
2023/05/09 08:03:30;;;;;;;7.97;3.33;;;15.90;99.90;;;;;;4976786;28;20176;-67
2023/05/09 08:05:55;;;;;;;7.83;3.93;;;16.20;99.90;;;;;;4990214;28;20199;-67
2023/05/09 08:08:22;;;;;;;12.60;2.70;;;16.30;99.90;;;;;;4972854;28;20239;-67
2023/05/09 08:10:47;;;;;;;3.43;2.60;;;16.20;99.90;;;;;;4971814;28;20209;-67
2023/05/09 08:13:13;;;;;;;5.87;3.40;;;16.10;99.90;;;;;;4971483;28;20430;-67
2023/05/09 08:15:39;;;;;;;8.73;3.60;;;16.20;99.90;;;;;;4979508;28;20180;-67
2023/05/09 08:18:05;;;;;;;3.77;2.40;;;16.50;99.90;;;;;;4978858;28;20227;-67
2023/05/09 08:20:30;;;;;;;9.00;3.23;;;17.00;99.90;;;;;;4983246;28;20238;-68
2023/05/09 08:22:56;;;;;;;5.87;3.17;;;17.90;99.90;;;;;;4991146;28;20458;-68
2023/05/09 08:25:22;;;;;;;6.47;3.23;;;18.40;99.90;;;;;;4979487;28;20184;-68
2023/05/09 08:27:47;;;;;;;6.30;2.63;;;18.90;99.90;;;;;;4972149;28;20587;-67
2023/05/09 08:30:14;;;;;;;6.27;3.17;;;18.90;99.90;;;;;;4970490;28;20224;-67
2023/05/09 08:32:40;;;;;;;6.30;2.30;;;19.10;99.90;;;;;;4976512;28;20253;-67
2023/05/09 08:35:07;;;;;;;5.40;2.30;;;18.60;99.90;;;;;;4981787;28;20415;-68
2023/05/09 08:37:34;;;;;;;4.07;2.27;;;18.80;99.90;;;;;;4975302;28;20442;-68
2023/05/09 08:40:00;;;;;;;3.60;2.00;;;19.10;99.90;;;;;;4983049;28;20763;-68
2023/05/09 08:42:27;;;;;;;4.03;2.27;;;19.50;99.90;;;;;;4974273;28;20427;-68
2023/05/09 08:44:52;;;;;;;4.90;2.07;;;19.90;99.90;;;;;;4987967;28;20186;-68
2023/05/09 08:47:20;;;;;;;3.77;2.40;;;19.50;99.90;;;;;;4981370;28;20522;-67
2023/05/09 08:49:46;;;;;;;4.33;2.50;;;19.20;99.90;;;;;;4993820;28;20187;-67
2023/05/09 08:52:13;;;;;;;2.50;1.50;;;18.80;99.90;;;;;;4980603;28;20518;-68
2023/05/09 08:54:39;;;;;;;4.53;2.07;;;18.50;99.90;;;;;;4975795;28;20527;-67
2023/05/09 08:57:05;;;;;;;8.20;2.70;;;18.20;99.90;;;;;;4988624;28;20451;-67
2023/05/09 08:59:35;;;;;;;5.67;2.80;;;18.10;99.90;;;;;;4974613;28;20335;-68
2023/05/09 09:02:04;;;;;;;4.07;2.70;;;18.00;99.90;;;;;;4981740;28;20428;-67
2023/05/09 09:04:30;;;;;;;5.10;2.50;;;17.80;99.90;;;;;;4975196;28;20853;-68
2023/05/09 09:06:56;;;;;;;3.97;2.40;;;17.80;99.90;;;;;;4982386;28;20450;-68
2023/05/09 09:09:22;;;;;;;3.77;2.50;;;17.90;99.90;;;;;;4978958;28;20696;-68
2023/05/09 09:11:47;;;;;;;6.70;2.83;;;18.00;99.90;;;;;;4981296;28;20251;-67
2023/05/09 09:14:24;;;;;;;4.70;2.63;;;17.90;99.90;;;;;;4994151;28;20425;-68
2023/05/09 09:16:51;;;;;;;4.10;2.70;;;17.80;99.90;;;;;;4977277;28;20179;-68
2023/05/09 09:19:18;;;;;;;3.37;2.30;;;18.00;99.90;;;;;;4979588;28;20562;-68
2023/05/09 09:21:49;;;;;;;4.07;2.23;;;18.40;99.90;;;;;;4974035;28;20431;-68
2023/05/09 09:24:23;;;;;;;3.17;1.60;;;18.30;99.90;;;;;;4974706;28;20803;-68
2023/05/09 09:26:50;;;;;;;5.43;2.63;;;18.40;99.90;;;;;;4977962;28;20431;-68
2023/05/09 09:29:17;;;;;;;5.07;2.50;;;18.60;99.90;;;;;;4987932;28;20517;-68
2023/05/09 09:31:51;;;;;;;6.30;2.33;;;18.50;99.90;;;;;;4974260;28;20459;-68
2023/05/09 09:34:21;;;;;;;6.43;3.03;;;18.40;99.90;;;;;;4974602;28;20459;-68
2023/05/09 09:36:48;;;;;;;6.40;3.10;;;18.60;99.90;;;;;;4987614;28;20435;-68
2023/05/09 09:39:14;;;;;;;5.27;3.00;;;18.80;99.90;;;;;;4980099;28;20431;-68
2023/05/09 09:41:41;;;;;;;11.83;3.93;;;19.00;99.90;;;;;;4974296;28;20467;-68
2023/05/09 09:44:20;;;;;;;7.23;3.37;;;19.30;99.90;;;;;;4987688;28;20453;-68
2023/05/09 09:46:49;;;;;;;17.80;5.73;;;19.40;99.90;;;;;;4986990;28;20438;-68
2023/05/09 09:49:16;;;;;;;6.97;3.60;;;19.30;99.90;;;;;;4984432;28;20841;-68
2023/05/09 09:51:42;;;;;;;9.03;4.90;;;19.60;99.90;;;;;;4989400;28;20561;-68
2023/05/09 09:54:09;;;;;;;8.57;4.53;;;19.30;99.90;;;;;;4992535;28;20434;-68
2023/05/09 09:56:42;;;;;;;7.33;4.20;;;19.40;99.90;;;;;;4992332;28;20574;-68
2023/05/09 09:59:14;;;;;;;9.57;3.77;;;19.50;99.90;;;;;;4975271;28;20889;-67
2023/05/09 10:02:05;;;;;;;6.00;3.67;;;19.60;99.90;;;;;;4974675;28;20435;-68
2023/05/09 10:04:35;;;;;;;6.70;3.57;;;19.50;99.90;;;;;;4974676;28;20419;-68
2023/05/09 10:07:04;;;;;;;12.90;4.17;;;19.70;99.90;;;;;;4975123;28;21223;-68
2023/05/09 10:09:31;;;;;;;6.83;3.57;;;20.30;99.90;;;;;;4974530;28;20474;-68
2023/05/09 10:12:03;;;;;;;5.63;3.23;;;20.40;99.90;;;;;;4970006;28;20437;-68
2023/05/09 10:14:30;;;;;;;6.33;4.03;;;20.50;99.90;;;;;;4970438;28;20455;-68
2023/05/09 10:16:57;;;;;;;7.73;3.00;;;20.50;99.90;;;;;;4976703;28;20422;-67
2023/05/09 10:19:25;;;;;;;3.77;2.57;;;20.40;99.90;;;;;;4974159;28;20415;-68
2023/05/09 10:22:08;;;;;;;2.93;1.90;;;20.40;99.90;;;;;;4973460;28;20509;-67
2023/05/09 10:24:45;;;;;;;2.50;1.30;;;20.20;99.90;;;;;;4974347;28;20967;-67
2023/05/09 10:27:11;;;;;;;6.90;2.20;;;19.90;99.90;;;;;;4974562;28;20513;-67
2023/05/09 10:29:43;;;;;;;4.50;2.10;;;19.90;99.90;;;;;;4973204;28;20435;-68
2023/05/09 10:32:30;;;;;;;8.23;2.37;;;19.70;99.90;;;;;;4974226;28;21020;-67
2023/05/09 10:35:02;;;;;;;5.90;2.43;;;19.70;99.90;;;;;;4974052;28;20463;-66
2023/05/09 10:37:28;;;;;;;3.77;2.07;;;19.70;99.90;;;;;;4974710;28;20428;-67
2023/05/09 10:39:55;;;;;;;3.97;2.10;;;19.70;99.90;;;;;;4980984;28;20534;-66
2023/05/09 10:42:22;;;;;;;3.30;1.83;;;19.80;99.90;;;;;;4974005;28;20424;-66
2023/05/09 10:44:49;;;;;;;6.93;2.10;;;19.70;99.90;;;;;;4974503;28;20771;-66
2023/05/09 10:47:15;;;;;;;5.43;2.53;;;19.80;99.90;;;;;;4974498;28;20872;-66
2023/05/09 10:49:42;;;;;;;2.70;1.57;;;19.80;99.90;;;;;;4971952;28;20455;-66
2023/05/09 10:52:07;;;;;;;3.30;1.93;;;19.80;99.90;;;;;;4973680;28;20438;-66
2023/05/09 10:54:36;;;;;;;3.30;1.90;;;19.80;99.90;;;;;;4973933;28;20420;-66
2023/05/09 10:57:02;;;;;;;2.43;1.40;;;20.10;99.90;;;;;;4972282;28;20311;-66
2023/05/09 10:59:38;;;;;;;3.27;2.17;;;20.10;99.90;;;;;;4973714;28;20876;-66
2023/05/09 11:02:05;;;;;;;15.20;2.13;;;20.00;99.90;;;;;;4976925;28;20431;-66
2023/05/09 11:04:31;;;;;;;2.60;1.70;;;20.10;99.90;;;;;;4973203;28;20424;-66
2023/05/09 11:06:59;;;;;;;3.03;1.60;;;19.90;99.90;;;;;;4974835;28;20452;-66
2023/05/09 11:09:28;;;;;;;3.40;1.93;;;19.70;99.90;;;;;;4977401;28;20424;-66
2023/05/09 11:12:03;;;;;;;5.50;1.70;;;19.60;99.90;;;;;;4971905;28;20562;-66
2023/05/09 11:14:41;;;;;;;2.67;1.63;;;19.70;99.90;;;;;;4973341;28;20506;-66
2023/05/09 11:17:28;;;;;;;4.63;1.67;;;19.80;99.90;;;;;;4974705;28;20470;-66
2023/05/09 11:20:26;;;;;;;3.27;1.77;;;19.90;99.90;;;;;;4968765;28;20420;-66
2023/05/09 11:22:52;;;;;;;4.23;1.40;;;20.10;99.90;;;;;;4972010;28;20451;-68
2023/05/09 11:25:24;;;;;;;2.50;1.53;;;20.20;99.90;;;;;;4983451;28;20450;-68
2023/05/09 11:27:51;;;;;;;2.80;1.80;;;20.10;99.90;;;;;;4986350;28;20549;-66
2023/05/09 11:30:18;;;;;;;2.57;1.50;;;20.00;99.90;;;;;;4979835;28;20496;-66
2023/05/09 11:32:46;;;;;;;3.10;1.90;;;19.80;99.90;;;;;;4970311;28;20448;-66
2023/05/09 11:35:14;;;;;;;11.10;1.43;;;19.90;99.90;;;;;;4970852;28;20427;-66
2023/05/09 11:38:03;;;;;;;3.00;1.77;;;19.90;99.90;;;;;;4977253;28;20436;-66
2023/05/09 11:40:30;;;;;;;4.20;1.70;;;19.90;99.90;;;;;;4986675;28;20427;-66
2023/05/09 11:42:58;;;;;;;2.20;1.23;;;19.90;99.90;;;;;;4985259;28;20477;-66
2023/05/09 11:45:26;;;;;;;3.50;1.47;;;19.70;99.90;;;;;;4973466;28;20489;-66
2023/05/09 11:47:52;;;;;;;10.40;1.60;;;19.70;99.90;;;;;;4978462;28;20424;-67
2023/05/09 11:50:19;;;;;;;3.30;1.73;;;19.60;99.90;;;;;;4973872;28;20554;-67
2023/05/09 11:52:47;;;;;;;2.83;1.73;;;19.50;99.90;;;;;;4979462;28;20633;-67
2023/05/09 11:55:15;;;;;;;3.50;1.43;;;19.70;99.90;;;;;;4974820;28;20985;-67
2023/05/09 11:57:47;;;;;;;2.37;1.20;;;20.00;99.90;;;;;;4990118;28;20469;-67
2023/05/09 12:00:23;;;;;;;4.13;2.00;;;20.20;99.90;;;;;;4969662;28;20815;-67
2023/05/09 12:02:50;;;;;;;2.37;1.40;;;20.20;99.90;;;;;;4969522;28;20441;-67
2023/05/09 12:05:18;;;;;;;2.30;1.30;;;20.10;99.90;;;;;;4970449;28;20439;-67
2023/05/09 12:07:44;;;;;;;2.90;1.53;;;20.00;99.90;;;;;;4970646;28;20440;-67
2023/05/09 12:10:13;;;;;;;2.60;1.60;;;19.70;99.90;;;;;;4969039;28;20463;-67
2023/05/09 12:12:46;;;;;;;4.60;2.03;;;19.70;99.90;;;;;;4965977;28;20886;-67
2023/05/09 12:15:13;;;;;;;2.37;1.53;;;19.60;99.90;;;;;;4981382;28;20483;-67
2023/05/09 12:17:40;;;;;;;3.83;1.97;;;19.40;99.90;;;;;;4974713;28;20412;-67
2023/05/09 12:20:07;;;;;;;3.10;1.77;;;19.40;99.90;;;;;;4981697;28;20431;-68
2023/05/09 12:22:33;;;;;;;3.60;1.57;;;19.40;99.90;;;;;;4974194;28;20435;-66
2023/05/09 12:25:01;;;;;;;5.07;2.23;;;19.30;99.90;;;;;;4968701;28;20435;-66
2023/05/09 12:27:28;;;;;;;2.60;1.70;;;19.40;99.90;;;;;;4969391;28;20446;-67
2023/05/09 12:29:54;;;;;;;2.30;1.40;;;19.30;99.90;;;;;;4979672;28;20493;-67
2023/05/09 12:32:20;;;;;;;2.37;1.10;;;19.30;99.90;;;;;;4989246;28;20435;-67
2023/05/09 12:34:50;;;;;;;2.93;1.10;;;19.40;99.90;;;;;;4982883;28;20488;-67
2023/05/09 12:37:18;;;;;;;6.60;1.77;;;19.50;99.90;;;;;;4973097;28;20780;-67
2023/05/09 12:40:05;;;;;;;2.03;1.20;;;19.60;99.90;;;;;;4969940;28;20432;-67
2023/05/09 12:42:32;;;;;;;1.90;1.10;;;19.70;99.90;;;;;;4956666;28;20447;-67
2023/05/09 12:45:00;;;;;;;2.07;1.10;;;19.70;99.90;;;;;;4969760;28;20424;-67